Absarokee, Montana
Current Conditions -  °F | °C
As of 1:53 AM on Friday 24 Oct 2014 (Local Time) from KBIL Reporting Station
Scattered Clouds Scattered Clouds  
Wind Chill: 16°   Ceiling: Unl
Heat Index: 16°   Visibility: 10mi
Dew Point: -2°   Wind: 14mph
Humidity: 30%   Direction: 260°W
Pressure: 29.89"   Gusts: NA
Location:  45.53°N, 109.43°W
Report Text: KBIL 240753Z 26012KT 10SM SCT110 16/M02 A2989 RMK AO2 SLP097 T01611017
Loading
Personal Weather Stations






























Interactive Weather Map
Tropical Storm Tracking
New forecast layout! Learn more

10-Day Weather Forecast

Advertisements
Track Severe Weather on mobile